createdAt,value
2023-02-27T00:00:25.135Z,77.45
2023-02-27T00:02:53.093Z,77.41
2023-02-27T00:05:20.487Z,77.19
2023-02-27T00:07:47.359Z,76.49
2023-02-27T00:10:15.087Z,76.50
2023-02-27T00:12:43.045Z,76.37
2023-02-27T00:15:13.834Z,76.59
2023-02-27T00:17:41.028Z,76.07
2023-02-27T00:20:11.838Z,75.86
2023-02-27T00:22:38.781Z,76.43
2023-02-27T00:25:06.569Z,76.77
2023-02-27T00:27:33.627Z,76.68
2023-02-27T00:30:00.580Z,77.15
2023-02-27T00:32:29.157Z,77.71
2023-02-27T00:34:56.284Z,77.84
2023-02-27T00:37:23.097Z,78.17
2023-02-27T00:39:50.236Z,78.95
2023-02-27T00:42:17.388Z,79.12
2023-02-27T00:44:44.141Z,79.47
2023-02-27T00:47:11.018Z,79.84
2023-02-27T00:49:39.275Z,79.53
2023-02-27T00:52:06.192Z,80.37
2023-02-27T00:54:33.117Z,80.27
2023-02-27T00:56:59.951Z,79.78
2023-02-27T00:59:26.869Z,79.05
2023-02-27T01:01:53.792Z,79.02
2023-02-27T01:04:20.938Z,78.99
2023-02-27T01:06:49.420Z,79.18
2023-02-27T01:09:16.743Z,79.24
2023-02-27T01:11:43.568Z,79.04
2023-02-27T01:14:10.724Z,79.40
2023-02-27T01:16:37.821Z,79.98
2023-02-27T01:19:05.239Z,80.29
2023-02-27T01:21:32.458Z,80.57
2023-02-27T01:24:02.403Z,80.75
2023-02-27T01:26:29.542Z,81.21
2023-02-27T01:28:56.308Z,81.19
2023-02-27T01:31:25.725Z,81.22
2023-02-27T01:33:52.663Z,81.78
2023-02-27T01:36:19.775Z,81.63
2023-02-27T01:38:46.932Z,82.23
2023-02-27T01:41:15.329Z,81.91
2023-02-27T01:43:58.339Z,81.38
2023-02-27T01:46:26.127Z,79.95
2023-02-27T01:48:58.673Z,79.47
2023-02-27T01:51:30.248Z,79.71
2023-02-27T01:53:58.276Z,79.60
2023-02-27T01:56:30.104Z,79.81
2023-02-27T01:59:00.700Z,80.67
2023-02-27T02:01:29.557Z,80.41
2023-02-27T02:04:03.729Z,80.24
2023-02-27T02:06:34.937Z,80.61
2023-02-27T02:09:02.703Z,80.54
2023-02-27T02:11:30.918Z,80.33
2023-02-27T02:13:59.557Z,80.37
2023-02-27T02:16:58.422Z,80.98
2023-02-27T02:20:03.816Z,81.94
2023-02-27T02:23:11.710Z,81.93
2023-02-27T02:26:09.899Z,81.48
2023-02-27T02:29:22.306Z,82.20
2023-02-27T02:32:26.879Z,81.46
2023-02-27T02:35:38.122Z,81.09
2023-02-27T02:38:32.186Z,81.21
2023-02-27T02:41:08.831Z,81.07
2023-02-27T02:43:46.010Z,81.37
2023-02-27T02:46:18.258Z,81.47
2023-02-27T02:48:52.499Z,81.37
2023-02-27T02:51:30.963Z,82.25
2023-02-27T02:54:05.846Z,82.76
2023-02-27T02:56:37.565Z,83.55
2023-02-27T02:59:11.976Z,84.31
2023-02-27T03:01:44.707Z,84.03
2023-02-27T03:04:18.433Z,85.40
2023-02-27T03:06:52.512Z,85.19
2023-02-27T03:09:26.456Z,85.75
2023-02-27T03:11:57.708Z,86.11
2023-02-27T03:14:33.773Z,86.67
2023-02-27T03:17:06.363Z,86.05
2023-02-27T03:19:40.369Z,86.15
2023-02-27T03:22:11.303Z,86.83
2023-02-27T03:24:45.667Z,86.92
2023-02-27T03:27:14.306Z,87.44
2023-02-27T03:29:46.393Z,87.61
2023-02-27T03:32:17.729Z,87.39
2023-02-27T03:34:45.387Z,86.75
2023-02-27T03:37:23.320Z,86.81
2023-02-27T03:39:56.547Z,87.35
2023-02-27T03:42:32.341Z,86.80
2023-02-27T03:45:04.607Z,87.32
2023-02-27T03:47:32.743Z,87.36
2023-02-27T03:49:59.616Z,86.67
2023-02-27T03:52:29.502Z,87.69
2023-02-27T03:55:03.428Z,87.54
2023-02-27T03:57:32.253Z,88.18
2023-02-27T03:59:59.420Z,87.47
2023-02-27T04:02:27.866Z,87.55
2023-02-27T04:04:54.688Z,87.99
2023-02-27T04:07:35.926Z,87.94
2023-02-27T04:10:32.767Z,87.24
2023-02-27T04:13:23.306Z,87.84
2023-02-27T04:16:10.621Z,87.69
2023-02-27T04:18:57.028Z,87.90
2023-02-27T04:21:31.752Z,87.42
2023-02-27T04:24:06.194Z,87.28
2023-02-27T04:26:42.506Z,87.38
2023-02-27T04:29:17.115Z,87.44
2023-02-27T04:31:49.759Z,87.67
2023-02-27T04:34:23.573Z,87.89
2023-02-27T04:36:57.148Z,87.85
2023-02-27T04:39:28.951Z,88.04
2023-02-27T04:42:01.304Z,88.08
2023-02-27T04:44:30.720Z,87.34
2023-02-27T04:47:00.544Z,87.25
2023-02-27T04:49:31.746Z,88.18
2023-02-27T04:52:05.133Z,87.71
2023-02-27T04:54:36.174Z,87.79
2023-02-27T04:57:10.078Z,87.56
2023-02-27T04:59:43.408Z,86.78
2023-02-27T05:02:14.586Z,86.66
2023-02-27T05:04:43.884Z,86.58
2023-02-27T05:07:17.362Z,86.48
2023-02-27T05:09:49.667Z,86.63
2023-02-27T05:12:23.181Z,85.81
2023-02-27T05:14:54.586Z,86.22
2023-02-27T05:17:25.861Z,86.00
2023-02-27T05:19:53.292Z,85.70
2023-02-27T05:22:28.414Z,85.61
2023-02-27T05:25:02.474Z,85.07
2023-02-27T05:27:48.772Z,84.86
2023-02-27T05:30:22.150Z,84.77
2023-02-27T05:32:55.462Z,85.30
2023-02-27T05:35:29.428Z,85.10
2023-02-27T05:38:04.655Z,84.92
2023-02-27T05:40:35.567Z,85.06
2023-02-27T05:43:09.704Z,85.30
2023-02-27T05:45:40.481Z,85.55
2023-02-27T05:48:10.393Z,85.46
2023-02-27T05:50:39.030Z,85.77
2023-02-27T05:53:09.781Z,85.88
2023-02-27T05:55:39.729Z,85.69
2023-02-27T05:58:16.766Z,85.75
2023-02-27T06:00:47.922Z,85.85
2023-02-27T06:03:15.406Z,85.87
2023-02-27T06:05:43.641Z,86.18
2023-02-27T06:08:11.019Z,86.47
2023-02-27T06:10:38.537Z,86.92
2023-02-27T06:13:05.220Z,87.86
2023-02-27T06:15:33.685Z,88.15
2023-02-27T06:18:00.543Z,88.29
2023-02-27T06:20:27.876Z,87.45
2023-02-27T06:22:54.687Z,87.06
2023-02-27T06:25:21.617Z,87.23
2023-02-27T06:27:48.513Z,87.32
2023-02-27T06:30:15.795Z,87.37
2023-02-27T06:32:45.543Z,88.39
2023-02-27T06:35:12.303Z,88.14
2023-02-27T06:37:39.172Z,87.93
2023-02-27T06:40:08.279Z,88.12
2023-02-27T06:42:35.331Z,88.85
2023-02-27T06:45:02.153Z,89.22
2023-02-27T06:47:28.936Z,89.64
2023-02-27T06:49:57.370Z,89.80
2023-02-27T06:52:24.187Z,89.67
2023-02-27T06:54:51.208Z,90.06
2023-02-27T06:57:18.408Z,89.67
2023-02-27T06:59:45.361Z,90.63
2023-02-27T07:02:13.221Z,90.67
2023-02-27T07:04:40.375Z,90.97
2023-02-27T07:07:33.908Z,91.52
2023-02-27T07:09:56.608Z,91.72
2023-02-27T07:12:23.439Z,90.77
2023-02-27T07:14:50.324Z,90.20
2023-02-27T07:17:17.263Z,90.07
2023-02-27T07:19:44.091Z,90.51
2023-02-27T07:22:12.352Z,90.76
2023-02-27T07:24:39.160Z,90.24
2023-02-27T07:27:06.304Z,90.54
2023-02-27T07:29:33.116Z,91.36
2023-02-27T07:32:00.054Z,91.53
2023-02-27T07:34:27.088Z,91.53
2023-02-27T07:36:53.918Z,91.28
2023-02-27T07:39:22.422Z,90.74
2023-02-27T07:41:49.885Z,91.15
2023-02-27T07:44:17.166Z,91.71
2023-02-27T07:46:44.484Z,90.00
2023-02-27T07:49:11.908Z,89.86
2023-02-27T07:51:39.012Z,90.39
2023-02-27T07:54:05.990Z,90.19
2023-02-27T07:56:34.553Z,90.60
2023-02-27T07:59:01.534Z,89.57
2023-02-27T08:01:28.763Z,88.81
2023-02-27T08:03:56.141Z,89.37
2023-02-27T08:06:23.108Z,89.18
2023-02-27T08:08:50.277Z,88.62
2023-02-27T08:11:17.331Z,89.38
2023-02-27T08:14:00.203Z,88.69
2023-02-27T08:16:28.332Z,87.84
2023-02-27T08:18:55.596Z,87.10
2023-02-27T08:21:22.685Z,87.64
2023-02-27T08:23:49.632Z,87.21
2023-02-27T08:26:16.845Z,86.71
2023-02-27T08:28:45.188Z,86.89
2023-02-27T08:31:12.357Z,87.49
2023-02-27T08:33:39.564Z,86.95
2023-02-27T08:36:07.147Z,87.00
2023-02-27T08:38:34.376Z,86.89
2023-02-27T08:41:01.134Z,85.23
2023-02-27T08:43:28.245Z,85.15
2023-02-27T08:45:56.724Z,85.30
2023-02-27T08:48:23.909Z,84.92
2023-02-27T08:50:51.453Z,84.24
2023-02-27T08:53:18.780Z,83.59
2023-02-27T08:55:49.891Z,83.20
2023-02-27T08:58:18.420Z,82.92
2023-02-27T09:00:46.350Z,82.15
2023-02-27T09:03:15.926Z,81.94
2023-02-27T09:05:43.589Z,80.36
2023-02-27T09:08:11.079Z,79.70
2023-02-27T09:10:38.574Z,79.39
2023-02-27T09:13:06.561Z,78.46
2023-02-27T09:15:33.962Z,77.45
2023-02-27T09:18:01.428Z,76.24
2023-02-27T09:20:30.436Z,74.91
2023-02-27T09:22:58.047Z,73.97
2023-02-27T09:25:26.102Z,73.68
2023-02-27T09:27:53.038Z,73.83
2023-02-27T09:30:20.246Z,76.50
2023-02-27T09:32:47.109Z,78.23
2023-02-27T09:35:13.954Z,80.48
2023-02-27T09:37:43.389Z,80.74
2023-02-27T09:40:18.284Z,81.34
2023-02-27T09:42:46.571Z,81.03
2023-02-27T09:45:20.956Z,80.28
2023-02-27T09:47:51.775Z,77.35
2023-02-27T09:50:31.547Z,75.63
2023-02-27T09:53:00.863Z,72.18
2023-02-27T09:55:33.010Z,70.31
2023-02-27T09:58:06.854Z,69.85
2023-02-27T10:00:51.550Z,68.95
2023-02-27T10:03:49.479Z,70.15
2023-02-27T10:06:26.001Z,69.61
2023-02-27T10:09:07.777Z,69.35
2023-02-27T10:11:44.788Z,71.50
2023-02-27T10:14:24.469Z,72.50
2023-02-27T10:16:54.179Z,71.83
2023-02-27T10:19:28.475Z,71.99
2023-02-27T10:21:59.408Z,71.07
2023-02-27T10:24:32.981Z,71.02
2023-02-27T10:27:04.692Z,70.73
2023-02-27T10:29:34.368Z,69.75
2023-02-27T10:32:05.955Z,70.26
2023-02-27T10:34:35.666Z,71.16
2023-02-27T10:37:06.387Z,71.01
2023-02-27T10:39:45.231Z,71.61
2023-02-27T10:42:16.535Z,71.93
2023-02-27T10:44:43.282Z,70.35
2023-02-27T10:47:14.118Z,71.03
2023-02-27T10:49:43.163Z,73.49
2023-02-27T10:52:12.877Z,76.22
2023-02-27T10:54:43.050Z,78.23
2023-02-27T10:57:25.680Z,79.97
2023-02-27T10:59:56.680Z,82.35
2023-02-27T11:02:29.853Z,84.41
2023-02-27T11:05:01.314Z,83.08
2023-02-27T11:07:33.466Z,83.30
2023-02-27T11:10:05.308Z,83.24
2023-02-27T11:12:35.603Z,85.07
2023-02-27T11:15:22.176Z,85.76
2023-02-27T11:17:49.229Z,84.26
2023-02-27T11:20:36.148Z,82.39
2023-02-27T11:23:05.443Z,79.15
2023-02-27T11:25:36.093Z,76.95
2023-02-27T11:28:15.475Z,75.46
2023-02-27T11:30:43.816Z,77.17
2023-02-27T11:33:20.326Z,74.54
2023-02-27T11:35:57.122Z,72.95
2023-02-27T11:38:28.361Z,67.00
2023-02-27T11:40:58.943Z,61.43
2023-02-27T11:43:29.771Z,56.49
2023-02-27T11:46:04.713Z,55.46
2023-02-27T11:48:50.428Z,56.71
2023-02-27T11:51:43.750Z,58.91
2023-02-27T11:54:27.457Z,61.47
2023-02-27T11:57:00.301Z,62.31
2023-02-27T11:59:39.030Z,63.98
2023-02-27T12:02:16.320Z,64.61
2023-02-27T12:04:54.453Z,64.84
2023-02-27T12:07:27.097Z,64.78
2023-02-27T12:10:02.291Z,64.62
2023-02-27T12:12:36.810Z,66.93
2023-02-27T12:15:18.901Z,67.70
2023-02-27T12:17:49.772Z,66.48
2023-02-27T12:20:29.876Z,64.45
2023-02-27T12:22:57.778Z,63.12
2023-02-27T12:25:35.589Z,61.86
2023-02-27T12:28:18.934Z,60.60
2023-02-27T12:30:54.667Z,62.41
2023-02-27T12:33:32.833Z,62.94
2023-02-27T12:36:03.895Z,60.73
2023-02-27T12:38:35.774Z,58.03
2023-02-27T12:41:31.252Z,57.80
2023-02-27T12:44:21.921Z,55.51
2023-02-27T12:46:55.842Z,46.96
2023-02-27T12:49:35.752Z,46.72
2023-02-27T12:52:17.703Z,48.38
2023-02-27T12:54:56.016Z,49.10
2023-02-27T12:57:32.884Z,50.39
2023-02-27T13:00:13.307Z,52.80
2023-02-27T13:02:56.918Z,54.78
2023-02-27T13:05:35.399Z,55.88
2023-02-27T13:08:13.925Z,56.78
2023-02-27T13:10:45.877Z,56.69
2023-02-27T13:13:21.106Z,57.09
2023-02-27T13:15:55.668Z,58.31
2023-02-27T13:18:39.398Z,60.62
2023-02-27T13:21:13.618Z,60.16
2023-02-27T13:23:54.590Z,60.04
2023-02-27T13:26:26.578Z,59.69
2023-02-27T13:28:55.585Z,59.00
2023-02-27T13:31:37.390Z,63.10
2023-02-27T13:34:16.408Z,61.58
2023-02-27T13:36:49.822Z,60.80
2023-02-27T13:39:52.382Z,60.17
2023-02-27T13:42:53.100Z,61.85
2023-02-27T13:45:53.194Z,63.93
2023-02-27T13:48:47.645Z,62.59
2023-02-27T13:51:54.473Z,62.88
2023-02-27T13:54:32.108Z,63.16
2023-02-27T13:57:21.697Z,62.13
2023-02-27T14:00:02.033Z,62.22
2023-02-27T14:02:57.739Z,61.04
2023-02-27T14:05:44.618Z,61.49
2023-02-27T14:08:16.513Z,60.16
2023-02-27T14:10:57.817Z,60.25
2023-02-27T14:14:03.852Z,58.96
2023-02-27T14:17:00.529Z,50.04
2023-02-27T14:19:56.024Z,48.05
2023-02-27T14:22:46.512Z,48.95
2023-02-27T14:25:21.859Z,50.75
2023-02-27T14:27:56.888Z,52.40
2023-02-27T14:30:29.911Z,53.13
2023-02-27T14:33:02.681Z,53.68
2023-02-27T14:35:31.117Z,53.70
2023-02-27T14:38:08.492Z,55.97
2023-02-27T14:40:42.651Z,55.72
2023-02-27T14:43:21.371Z,56.89
2023-02-27T14:45:49.106Z,56.07
2023-02-27T14:48:27.910Z,56.21
2023-02-27T14:50:56.481Z,56.40
2023-02-27T14:53:28.019Z,55.99
2023-02-27T14:55:57.245Z,55.72
2023-02-27T14:58:25.623Z,56.92
2023-02-27T15:01:01.135Z,57.58
2023-02-27T15:03:33.312Z,57.19
2023-02-27T15:06:04.004Z,57.36
2023-02-27T15:08:39.592Z,58.06
2023-02-27T15:11:10.044Z,58.22
2023-02-27T15:13:42.552Z,58.45
2023-02-27T15:16:40.008Z,57.60
2023-02-27T15:19:17.345Z,59.20
2023-02-27T15:21:47.353Z,59.24
2023-02-27T15:24:33.117Z,58.51
2023-02-27T15:27:05.037Z,57.45
2023-02-27T15:29:36.759Z,57.52
2023-02-27T15:32:05.100Z,57.05
2023-02-27T15:34:32.727Z,56.66
2023-02-27T15:37:01.355Z,57.60
2023-02-27T15:39:32.276Z,58.30
2023-02-27T15:42:03.516Z,58.12
2023-02-27T15:44:37.444Z,57.75
2023-02-27T15:47:06.349Z,57.81
2023-02-27T15:49:34.302Z,58.38
2023-02-27T15:52:05.796Z,58.44
2023-02-27T15:54:36.612Z,58.65
2023-02-27T15:57:06.298Z,58.10
2023-02-27T15:59:40.864Z,58.06
2023-02-27T16:02:15.626Z,58.40
2023-02-27T16:04:47.043Z,58.21
2023-02-27T16:07:17.857Z,57.88
2023-02-27T16:09:51.041Z,58.13
2023-02-27T16:12:30.098Z,58.20
2023-02-27T16:15:28.067Z,58.44
2023-02-27T16:18:01.118Z,58.33
2023-02-27T16:20:47.042Z,59.44
2023-02-27T16:23:24.797Z,58.33
2023-02-27T16:26:05.272Z,56.88
2023-02-27T16:28:36.295Z,56.72
2023-02-27T16:31:23.828Z,56.55
2023-02-27T16:33:52.456Z,56.99
2023-02-27T16:36:21.237Z,56.31
2023-02-27T16:38:50.032Z,56.15
2023-02-27T16:41:21.736Z,56.18
2023-02-27T16:43:50.128Z,56.07
2023-02-27T16:46:19.572Z,56.04
2023-02-27T16:48:50.251Z,56.34
2023-02-27T16:51:21.219Z,56.56
2023-02-27T16:53:48.805Z,57.11
2023-02-27T16:56:21.476Z,57.01
2023-02-27T16:58:57.714Z,56.75
2023-02-27T17:01:25.529Z,56.54
2023-02-27T17:03:52.612Z,56.25
2023-02-27T17:06:20.418Z,56.97
2023-02-27T17:08:48.410Z,56.60
2023-02-27T17:11:16.373Z,56.88
2023-02-27T17:13:43.609Z,57.70
2023-02-27T17:16:14.104Z,57.38
2023-02-27T17:18:41.131Z,57.49
2023-02-27T17:21:08.589Z,57.53
2023-02-27T17:23:36.409Z,57.76
2023-02-27T17:26:03.449Z,58.38
2023-02-27T17:28:30.318Z,59.30
2023-02-27T17:30:57.964Z,60.36
2023-02-27T17:33:27.524Z,61.74
2023-02-27T17:36:02.253Z,62.57
2023-02-27T17:38:29.228Z,63.39
2023-02-27T17:40:56.429Z,63.67
2023-02-27T17:43:24.167Z,64.76
2023-02-27T17:45:52.582Z,66.40
2023-02-27T17:48:20.036Z,68.24
2023-02-27T17:50:49.241Z,68.23
2023-02-27T17:53:16.175Z,66.93
2023-02-27T17:55:44.472Z,67.63
2023-02-27T17:58:11.699Z,66.78
2023-02-27T18:00:39.849Z,67.70
2023-02-27T18:03:06.813Z,68.21
2023-02-27T18:05:33.838Z,67.58
2023-02-27T18:08:02.062Z,68.25
2023-02-27T18:10:29.457Z,67.84
2023-02-27T18:12:56.833Z,68.07
2023-02-27T18:15:24.984Z,68.47
2023-02-27T18:17:52.035Z,68.25
2023-02-27T18:20:19.143Z,68.25
2023-02-27T18:22:46.678Z,68.16
2023-02-27T18:25:16.836Z,68.82
2023-02-27T18:27:45.037Z,69.47
2023-02-27T18:30:12.842Z,69.79
2023-02-27T18:32:40.012Z,70.32
2023-02-27T18:35:08.412Z,71.05
2023-02-27T18:37:35.650Z,72.23
2023-02-27T18:40:02.960Z,72.35
2023-02-27T18:42:32.415Z,73.00
2023-02-27T18:45:00.240Z,73.30
2023-02-27T18:47:30.190Z,73.52
2023-02-27T18:49:58.192Z,73.64
2023-02-27T18:52:26.563Z,74.09
2023-02-27T18:54:53.386Z,73.93
2023-02-27T18:57:20.293Z,73.10
2023-02-27T18:59:50.595Z,72.64
2023-02-27T19:02:18.839Z,72.53
2023-02-27T19:04:46.922Z,72.32
2023-02-27T19:07:15.576Z,72.51
2023-02-27T19:09:43.928Z,73.12
2023-02-27T19:12:12.384Z,73.18
2023-02-27T19:14:41.367Z,73.68
2023-02-27T19:17:09.996Z,73.84
2023-02-27T19:19:38.133Z,73.86
2023-02-27T19:22:06.253Z,74.11
2023-02-27T19:24:34.350Z,74.90
2023-02-27T19:27:02.152Z,75.50
2023-02-27T19:29:29.880Z,75.84
2023-02-27T19:31:58.359Z,75.81
2023-02-27T19:34:27.544Z,76.04
2023-02-27T19:36:54.891Z,75.97
2023-02-27T19:39:21.813Z,76.17
2023-02-27T19:41:48.991Z,77.40
2023-02-27T19:44:18.076Z,78.69
2023-02-27T19:46:46.060Z,79.56
2023-02-27T19:49:12.983Z,80.41
2023-02-27T19:51:41.952Z,80.91
2023-02-27T19:54:12.625Z,81.07
2023-02-27T19:56:40.016Z,81.46
2023-02-27T19:59:08.043Z,81.69
2023-02-27T20:01:36.671Z,82.42
2023-02-27T20:04:04.436Z,82.77
2023-02-27T20:06:32.871Z,82.88
2023-02-27T20:09:02.372Z,83.33
2023-02-27T20:11:32.490Z,83.21
2023-02-27T20:14:00.219Z,82.92
2023-02-27T20:16:28.533Z,83.29
2023-02-27T20:18:57.806Z,83.85
2023-02-27T20:21:24.982Z,83.58
2023-02-27T20:23:53.062Z,83.95
2023-02-27T20:26:24.899Z,83.85
2023-02-27T20:28:54.230Z,83.78
2023-02-27T20:31:24.286Z,83.93
2023-02-27T20:33:52.903Z,84.31
2023-02-27T20:36:21.782Z,85.14
2023-02-27T20:38:49.784Z,85.04
2023-02-27T20:41:20.158Z,84.90
2023-02-27T20:43:51.706Z,85.54
2023-02-27T20:46:22.806Z,85.42
2023-02-27T20:48:51.010Z,86.07
2023-02-27T20:51:20.977Z,86.82
2023-02-27T20:53:49.418Z,87.15
2023-02-27T20:56:20.934Z,87.10
2023-02-27T20:58:51.032Z,88.25
2023-02-27T21:01:19.844Z,88.14
2023-02-27T21:03:48.262Z,89.21
2023-02-27T21:06:17.120Z,90.89
2023-02-27T21:08:47.162Z,90.27
2023-02-27T21:11:16.891Z,91.31
2023-02-27T21:13:44.785Z,92.24
2023-02-27T21:16:15.590Z,93.04
2023-02-27T21:18:43.801Z,93.71
2023-02-27T21:21:15.051Z,94.00
2023-02-27T21:23:42.597Z,94.84
2023-02-27T21:26:10.355Z,95.34
2023-02-27T21:28:38.421Z,95.27
2023-02-27T21:31:07.577Z,95.23
2023-02-27T21:33:36.997Z,96.23
2023-02-27T21:36:05.654Z,96.50
2023-02-27T21:38:33.217Z,96.36
2023-02-27T21:41:05.579Z,95.96
2023-02-27T21:43:33.541Z,96.04
2023-02-27T21:46:05.155Z,96.67
2023-02-27T21:48:33.005Z,96.38
2023-02-27T21:51:02.556Z,96.90
2023-02-27T21:53:30.403Z,97.00
2023-02-27T21:56:04.998Z,97.25
2023-02-27T21:58:33.517Z,97.26
2023-02-27T22:01:01.795Z,97.55
2023-02-27T22:03:29.591Z,97.53
2023-02-27T22:05:58.135Z,97.96
2023-02-27T22:08:27.959Z,98.11
2023-02-27T22:10:57.584Z,98.38
2023-02-27T22:13:25.769Z,98.71
2023-02-27T22:15:53.277Z,98.61
2023-02-27T22:18:20.643Z,99.42
2023-02-27T22:20:48.921Z,99.77
2023-02-27T22:23:17.331Z,99.67
2023-02-27T22:25:45.841Z,99.71
2023-02-27T22:28:14.014Z,99.52
2023-02-27T22:30:41.344Z,99.22
2023-02-27T22:33:08.950Z,99.22
2023-02-27T22:35:36.486Z,99.52
2023-02-27T22:38:03.878Z,99.67
2023-02-27T22:40:31.257Z,99.96
2023-02-27T22:43:01.312Z,100.00
2023-02-27T22:45:28.273Z,99.58
2023-02-27T22:47:55.992Z,100.00
2023-02-27T22:50:23.071Z,100.00
2023-02-27T22:52:50.862Z,100.00
2023-02-27T22:55:18.533Z,99.84
2023-02-27T22:57:45.807Z,100.00
2023-02-27T23:00:14.771Z,99.35
2023-02-27T23:02:42.383Z,98.87
2023-02-27T23:05:10.530Z,98.96
2023-02-27T23:07:37.978Z,98.55
2023-02-27T23:10:06.626Z,98.76
2023-02-27T23:12:34.282Z,99.23
2023-02-27T23:15:02.328Z,99.27
2023-02-27T23:17:31.306Z,99.75
2023-02-27T23:19:58.203Z,99.59
2023-02-27T23:22:25.669Z,100.00
2023-02-27T23:24:54.198Z,100.00
2023-02-27T23:27:26.165Z,100.00
2023-02-27T23:29:54.255Z,99.78
2023-02-27T23:32:21.953Z,100.00
2023-02-27T23:34:51.216Z,100.00
2023-02-27T23:37:18.742Z,100.00
2023-02-27T23:39:46.095Z,100.00
2023-02-27T23:42:13.511Z,100.00
2023-02-27T23:44:41.227Z,100.00
2023-02-27T23:47:08.613Z,100.00
2023-02-27T23:49:36.195Z,100.00
2023-02-27T23:52:06.534Z,99.98
2023-02-27T23:54:34.463Z,99.89
2023-02-27T23:57:01.759Z,100.00
2023-02-27T23:59:29.314Z,100.00
